Time;durP1;ratioP1;P1;durP2;ratioP2;P2;SDS_P1;SDS_P2;PMS_P1;PMS_P2;Temp;Humidity;BMP_temperature;BMP_pressure;BME280_temperature;BME280_humidity;BME280_pressure;Samples;Min_cycle;Max_cycle;Signal;HPM_P1;HPM_P2
2023/01/24 00:01:17;;;;;;;1.60;1.00;;;;;;;;;;5035939;28;20041;-71
2023/01/24 00:03:44;;;;;;;1.20;0.90;;;;;;;;;;5035834;28;20136;-71
2023/01/24 00:06:10;;;;;;;1.40;0.90;;;;;;;;;;5036039;28;20037;-71
2023/01/24 00:08:36;;;;;;;1.20;0.90;;;;;;;;;;5035993;28;20107;-71
2023/01/24 00:11:03;;;;;;;3.07;1.60;;;;;;;;;;5035999;28;20112;-71
2023/01/24 00:13:30;;;;;;;9.70;3.67;;;;;;;;;;5034204;28;20129;-71
2023/01/24 00:16:03;;;;;;;3.70;2.07;;;;;;;;;;5035711;28;20033;-70
2023/01/24 00:18:30;;;;;;;3.17;1.73;;;;;;;;;;5035478;28;20480;-71
2023/01/24 00:21:03;;;;;;;2.27;1.17;;;;;;;;;;5034341;28;20100;-71
2023/01/24 00:23:29;;;;;;;2.83;1.50;;;;;;;;;;5035785;28;20045;-71
2023/01/24 00:25:55;;;;;;;1.63;1.10;;;;;;;;;;5035923;28;20034;-71
2023/01/24 00:28:21;;;;;;;1.63;0.87;;;;;;;;;;5035622;28;20061;-71
2023/01/24 00:30:47;;;;;;;3.07;0.80;;;;;;;;;;5035459;28;20068;-71
2023/01/24 00:33:13;;;;;;;1.10;0.70;;;;;;;;;;5035356;28;20038;-71
2023/01/24 00:35:39;;;;;;;1.87;1.10;;;;;;;;;;5035500;28;20064;-71
2023/01/24 00:38:05;;;;;;;1.30;0.87;;;;;;;;;;5035585;28;20040;-71
2023/01/24 00:40:31;;;;;;;1.83;1.00;;;;;;;;;;5035468;28;20422;-71
2023/01/24 00:42:57;;;;;;;0.93;0.70;;;;;;;;;;5035061;28;20053;-71
2023/01/24 00:45:23;;;;;;;1.27;0.73;;;;;;;;;;5034705;28;20029;-71
2023/01/24 00:47:49;;;;;;;1.40;0.90;;;;;;;;;;5035159;28;20038;-71
2023/01/24 00:50:16;;;;;;;1.00;0.70;;;;;;;;;;5035135;28;20065;-71
2023/01/24 00:52:42;;;;;;;1.50;0.93;;;;;;;;;;5034953;28;20380;-71
2023/01/24 00:55:08;;;;;;;0.90;0.60;;;;;;;;;;5034886;28;20034;-71
2023/01/24 00:57:34;;;;;;;1.47;0.93;;;;;;;;;;5033511;28;20131;-71
2023/01/24 01:00:00;;;;;;;3.23;1.00;;;;;;;;;;5035025;28;20021;-71
2023/01/24 01:02:26;;;;;;;1.00;0.53;;;;;;;;;;5035096;28;20041;-71
2023/01/24 01:04:52;;;;;;;2.83;1.00;;;;;;;;;;5034544;28;20068;-71
2023/01/24 01:07:20;;;;;;;1.30;0.73;;;;;;;;;;5034541;28;20108;-71
2023/01/24 01:09:47;;;;;;;2.27;0.80;;;;;;;;;;5034997;28;20513;-71
2023/01/24 01:12:13;;;;;;;1.77;0.80;;;;;;;;;;5033519;28;20037;-71
2023/01/24 01:14:39;;;;;;;1.13;0.80;;;;;;;;;;5034464;28;20037;-71
2023/01/24 01:17:05;;;;;;;1.77;1.10;;;;;;;;;;5034852;28;20521;-71
2023/01/24 01:19:31;;;;;;;1.83;1.13;;;;;;;;;;5034440;28;20495;-72
2023/01/24 01:21:57;;;;;;;1.30;0.97;;;;;;;;;;5034723;28;20033;-71
2023/01/24 01:24:23;;;;;;;1.73;1.10;;;;;;;;;;5034588;28;20076;-71
2023/01/24 01:26:49;;;;;;;1.80;1.33;;;;;;;;;;5034416;28;20562;-71
2023/01/24 01:29:15;;;;;;;2.00;1.30;;;;;;;;;;5034431;28;20040;-71
2023/01/24 01:31:42;;;;;;;2.63;1.20;;;;;;;;;;5034150;28;20572;-71
2023/01/24 01:34:08;;;;;;;2.37;1.40;;;;;;;;;;5034375;28;20517;-71
2023/01/24 01:36:34;;;;;;;2.87;1.30;;;;;;;;;;5034449;28;20034;-71
2023/01/24 01:39:00;;;;;;;2.33;1.40;;;;;;;;;;5034417;28;20030;-71
2023/01/24 01:41:27;;;;;;;1.93;1.20;;;;;;;;;;5033982;28;20034;-71
2023/01/24 01:46:44;;;;;;;1.63;1.20;;;;;;;;;;5034304;28;20039;-71
2023/01/24 01:49:10;;;;;;;;;;;;;;;;;;5034714;28;20398;-71
2023/01/24 01:51:43;;;;;;;1.80;0.90;;;;;;;;;;5034202;28;19905;-71
2023/01/24 01:54:32;;;;;;;2.20;1.20;;;;;;;;;;5034150;28;20041;-71
2023/01/24 01:57:06;;;;;;;1.40;0.90;;;;;;;;;;5032724;28;20050;-71
2023/01/24 01:59:37;;;;;;;1.73;1.07;;;;;;;;;;5030766;28;20140;-71
2023/01/24 02:02:05;;;;;;;1.67;1.00;;;;;;;;;;5031210;28;20056;-71
2023/01/24 02:04:33;;;;;;;1.07;0.73;;;;;;;;;;5031904;28;20033;-71
2023/01/24 02:07:08;;;;;;;2.27;1.10;;;;;;;;;;5033052;28;20108;-71
2023/01/24 02:09:37;;;;;;;1.77;0.90;;;;;;;;;;5033078;28;20029;-71
2023/01/24 02:12:06;;;;;;;1.63;0.80;;;;;;;;;;5033625;28;20030;-71
2023/01/24 02:17:18;;;;;;;1.40;1.00;;;;;;;;;;5033487;28;20084;-71
2023/01/24 02:19:59;;;;;;;0.97;0.73;;;;;;;;;;5033241;28;20038;-71
2023/01/24 02:22:36;;;;;;;2.40;0.97;;;;;;;;;;5033366;28;20069;-71
2023/01/24 02:25:06;;;;;;;2.17;1.10;;;;;;;;;;5033112;28;20042;-71
2023/01/24 02:27:32;;;;;;;2.30;1.10;;;;;;;;;;5032640;28;20038;-71
2023/01/24 02:29:59;;;;;;;1.83;1.30;;;;;;;;;;5033086;28;20048;-71
2023/01/24 02:32:25;;;;;;;2.67;1.30;;;;;;;;;;5033325;28;20041;-71
2023/01/24 02:34:51;;;;;;;2.00;1.17;;;;;;;;;;5033056;28;20033;-71
2023/01/24 02:37:17;;;;;;;2.13;1.30;;;;;;;;;;5031675;28;20080;-71
2023/01/24 02:40:06;;;;;;;1.63;1.20;;;;;;;;;;5032687;28;20029;-71
2023/01/24 02:42:36;;;;;;;2.40;1.10;;;;;;;;;;5032638;28;20101;-70
2023/01/24 02:45:11;;;;;;;2.00;1.27;;;;;;;;;;5032694;28;20049;-71
2023/01/24 02:47:41;;;;;;;2.10;1.27;;;;;;;;;;5032886;28;20037;-71
2023/01/24 02:50:09;;;;;;;1.90;1.20;;;;;;;;;;5032800;28;20549;-72
2023/01/24 02:55:20;;;;;;;1.63;1.10;;;;;;;;;;5033217;28;20036;-71
2023/01/24 03:00:31;;;;;;;2.00;1.30;;;;;;;;;;5032543;28;20040;-71
2023/01/24 03:02:57;;;;;;;3.70;1.27;;;;;;;;;;5032919;28;20053;-71
2023/01/24 03:05:23;;;;;;;1.57;1.20;;;;;;;;;;5032889;28;20114;-71
2023/01/24 03:07:49;;;;;;;1.80;1.20;;;;;;;;;;5032761;28;20042;-71
2023/01/24 03:10:17;;;;;;;2.90;1.23;;;;;;;;;;5032729;28;20083;-71
2023/01/24 03:34:51;;;;;;;3.40;1.53;;;;;;;;;;5032793;28;20095;-70
2023/01/24 03:40:08;;;;;;;2.57;1.70;;;;;;;;;;5032370;28;20096;-69
2023/01/24 03:42:34;;;;;;;2.67;1.70;;;;;;;;;;5032122;28;20111;-70
2023/01/24 03:45:01;;;;;;;4.23;1.93;;;;;;;;;;5032159;28;20033;-70
2023/01/24 03:47:27;;;;;;;3.93;1.63;;;;;;;;;;5032391;28;20073;-71
2023/01/24 03:52:37;;;;;;;2.53;1.67;;;;;;;;;;5032248;28;20044;-71
2023/01/24 03:55:04;;;;;;;3.00;1.40;;;;;;;;;;5032305;28;20553;-71
2023/01/24 03:57:30;;;;;;;3.50;1.70;;;;;;;;;;5032357;28;20068;-70
2023/01/24 03:59:56;;;;;;;5.30;1.70;;;;;;;;;;5032415;28;20088;-70
2023/01/24 04:02:23;;;;;;;2.97;1.57;;;;;;;;;;5032053;28;20434;-71
2023/01/24 04:07:34;;;;;;;5.77;1.40;;;;;;;;;;5031940;28;20092;-71
2023/01/24 04:10:00;;;;;;;3.00;1.30;;;;;;;;;;5031813;28;20104;-71
2023/01/24 04:12:26;;;;;;;3.43;1.60;;;;;;;;;;5031832;28;20084;-71
2023/01/24 04:14:52;;;;;;;2.57;1.30;;;;;;;;;;5032194;28;20475;-71
2023/01/24 04:17:19;;;;;;;2.20;1.33;;;;;;;;;;5032242;28;20092;-71
2023/01/24 04:19:45;;;;;;;2.63;1.43;;;;;;;;;;5032049;28;20042;-71
2023/01/24 04:22:11;;;;;;;1.80;1.30;;;;;;;;;;5035126;28;20054;-71
2023/01/24 04:24:38;;;;;;;2.00;1.43;;;;;;;;;;5035773;28;20103;-71
2023/01/24 04:27:04;;;;;;;1.67;1.13;;;;;;;;;;5035692;28;20034;-71
2023/01/24 04:29:30;;;;;;;2.13;1.27;;;;;;;;;;5035688;28;20037;-71
2023/01/24 04:31:56;;;;;;;2.87;1.17;;;;;;;;;;5035763;28;20029;-71
2023/01/24 04:34:22;;;;;;;1.57;1.10;;;;;;;;;;5035295;28;20041;-71
2023/01/24 04:36:48;;;;;;;1.70;1.30;;;;;;;;;;5035173;28;20061;-71
2023/01/24 04:39:14;;;;;;;1.47;1.10;;;;;;;;;;5035299;28;20034;-71
2023/01/24 04:41:40;;;;;;;1.93;0.97;;;;;;;;;;5035533;28;20034;-72
2023/01/24 04:44:07;;;;;;;2.03;1.07;;;;;;;;;;5035532;28;20068;-71
2023/01/24 04:46:33;;;;;;;1.70;1.03;;;;;;;;;;5034909;28;20092;-71
2023/01/24 04:48:59;;;;;;;1.97;1.30;;;;;;;;;;5034937;28;20036;-71
2023/01/24 04:51:25;;;;;;;1.80;1.07;;;;;;;;;;5035189;28;20099;-71
2023/01/24 04:53:51;;;;;;;3.67;1.40;;;;;;;;;;5035357;28;20048;-71
2023/01/24 04:56:17;;;;;;;3.53;1.23;;;;;;;;;;5035145;28;20086;-71
2023/01/24 04:58:43;;;;;;;1.93;1.23;;;;;;;;;;5034992;28;20045;-71
2023/01/24 05:01:09;;;;;;;1.70;1.10;;;;;;;;;;5035118;28;20033;-71
2023/01/24 05:03:35;;;;;;;2.00;1.27;;;;;;;;;;5034514;28;20049;-71
2023/01/24 05:06:01;;;;;;;1.50;1.20;;;;;;;;;;5034752;28;20112;-71
2023/01/24 05:08:27;;;;;;;1.23;0.83;;;;;;;;;;5034624;28;20087;-71
2023/01/24 05:10:54;;;;;;;2.00;1.10;;;;;;;;;;5034943;28;20045;-71
2023/01/24 05:13:20;;;;;;;1.90;1.30;;;;;;;;;;5034710;28;20478;-71
2023/01/24 05:15:50;;;;;;;1.40;1.10;;;;;;;;;;5034872;28;20038;-71
2023/01/24 05:18:16;;;;;;;1.63;1.07;;;;;;;;;;5034685;28;20037;-71
2023/01/24 05:20:42;;;;;;;1.90;1.37;;;;;;;;;;5034651;28;20037;-71
2023/01/24 05:23:08;;;;;;;1.90;1.10;;;;;;;;;;5034610;28;20398;-71
2023/01/24 05:25:34;;;;;;;3.87;1.50;;;;;;;;;;5033357;28;20029;-71
2023/01/24 05:28:00;;;;;;;3.17;1.63;;;;;;;;;;5034398;28;20064;-71
2023/01/24 05:30:26;;;;;;;2.87;1.57;;;;;;;;;;5034275;28;20029;-71
2023/01/24 05:32:56;;;;;;;3.20;1.70;;;;;;;;;;5032989;28;20092;-70
2023/01/24 05:35:22;;;;;;;2.70;1.70;;;;;;;;;;5034428;28;20034;-71
2023/01/24 05:37:48;;;;;;;2.87;1.90;;;;;;;;;;5032883;28;20441;-71
2023/01/24 05:40:14;;;;;;;3.50;2.00;;;;;;;;;;5034034;28;20614;-71
2023/01/24 05:42:42;;;;;;;3.40;1.77;;;;;;;;;;5033937;28;20029;-71
2023/01/24 05:45:08;;;;;;;3.47;2.00;;;;;;;;;;5034025;28;20571;-71
2023/01/24 05:47:35;;;;;;;2.77;1.77;;;;;;;;;;5034044;28;20487;-70
2023/01/24 05:50:01;;;;;;;3.70;1.60;;;;;;;;;;5034139;28;20383;-71
2023/01/24 05:52:27;;;;;;;1.90;1.27;;;;;;;;;;5033831;28;20029;-71
2023/01/24 05:54:53;;;;;;;3.20;1.90;;;;;;;;;;5033966;28;20045;-71
2023/01/24 05:57:20;;;;;;;2.00;1.50;;;;;;;;;;5033994;28;20036;-71
2023/01/24 05:59:46;;;;;;;2.43;1.40;;;;;;;;;;5033572;28;20426;-71
2023/01/24 06:02:12;;;;;;;3.27;1.63;;;;;;;;;;5033603;28;20072;-71
2023/01/24 06:04:38;;;;;;;5.57;1.80;;;;;;;;;;5033732;28;20526;-71
2023/01/24 06:07:04;;;;;;;3.50;1.80;;;;;;;;;;5033409;28;20041;-71
2023/01/24 06:09:30;;;;;;;5.60;1.80;;;;;;;;;;5032557;28;20037;-71
2023/01/24 06:11:56;;;;;;;2.53;1.50;;;;;;;;;;5033291;28;20033;-71
2023/01/24 06:14:22;;;;;;;2.50;1.27;;;;;;;;;;5033485;28;20112;-71
2023/01/24 06:16:48;;;;;;;3.53;1.70;;;;;;;;;;5033289;28;20061;-71
2023/01/24 06:19:15;;;;;;;3.47;1.50;;;;;;;;;;5033573;28;20034;-71
2023/01/24 06:22:13;;;;;;;5.33;1.77;;;;;;;;;;5033633;28;20033;-71
2023/01/24 06:24:39;;;;;;;3.03;1.90;;;;;;;;;;5032211;28;20092;-71
2023/01/24 06:27:06;;;;;;;3.77;1.80;;;;;;;;;;5033507;28;20061;-71
2023/01/24 06:29:32;;;;;;;2.80;1.70;;;;;;;;;;5033321;28;20495;-71
2023/01/24 06:32:06;;;;;;;3.10;1.90;;;;;;;;;;5033512;28;20045;-71
2023/01/24 06:34:51;;;;;;;3.03;1.80;;;;;;;;;;5033424;28;20044;-71
2023/01/24 06:37:38;;;;;;;3.83;1.97;;;;;;;;;;5033089;28;20148;-71
2023/01/24 06:40:07;;;;;;;2.47;1.37;;;;;;;;;;5033352;28;20095;-71
2023/01/24 06:42:33;;;;;;;3.03;1.77;;;;;;;;;;5032958;28;20045;-71
2023/01/24 06:44:59;;;;;;;3.17;1.67;;;;;;;;;;5032888;28;20041;-71
2023/01/24 06:47:27;;;;;;;3.33;1.90;;;;;;;;;;5033038;28;20108;-69
2023/01/24 06:49:53;;;;;;;2.20;1.57;;;;;;;;;;5032948;28;20037;-71
2023/01/24 06:52:19;;;;;;;3.53;1.90;;;;;;;;;;5031617;28;20079;-71
2023/01/24 06:54:45;;;;;;;2.90;1.70;;;;;;;;;;5032906;28;20038;-71
2023/01/24 06:57:12;;;;;;;4.23;2.47;;;;;;;;;;5033143;28;20083;-71
2023/01/24 06:59:38;;;;;;;8.73;2.30;;;;;;;;;;5032744;28;20053;-71
2023/01/24 07:02:04;;;;;;;4.90;1.83;;;;;;;;;;5032914;28;20041;-71
2023/01/24 07:04:30;;;;;;;3.27;1.80;;;;;;;;;;5032865;28;20053;-71
2023/01/24 07:06:56;;;;;;;4.43;1.90;;;;;;;;;;5032975;28;20570;-71
2023/01/24 07:09:23;;;;;;;3.63;1.87;;;;;;;;;;5032847;28;20088;-71
2023/01/24 07:11:52;;;;;;;5.60;1.60;;;;;;;;;;5031066;28;20064;-71
2023/01/24 07:14:18;;;;;;;3.23;2.00;;;;;;;;;;5032617;28;20038;-71
2023/01/24 07:16:45;;;;;;;3.90;2.13;;;;;;;;;;5032759;28;20026;-71
2023/01/24 07:19:15;;;;;;;3.90;2.33;;;;;;;;;;5030985;28;20072;-73
2023/01/24 07:21:41;;;;;;;5.67;2.37;;;;;;;;;;5027121;28;20048;-68
2023/01/24 07:24:12;;;;;;;6.70;2.47;;;;;;;;;;5029342;28;20060;-69
2023/01/24 07:26:39;;;;;;;6.43;2.57;;;;;;;;;;5031227;28;20040;-68
2023/01/24 07:29:05;;;;;;;6.07;3.53;;;;;;;;;;5032003;28;20037;-68
2023/01/24 07:31:31;;;;;;;8.57;4.30;;;;;;;;;;5032271;28;20040;-68
2023/01/24 07:33:57;;;;;;;7.70;4.30;;;;;;;;;;5031356;28;20040;-69
2023/01/24 07:36:23;;;;;;;9.07;5.23;;;;;;;;;;5031721;28;20471;-69
2023/01/24 07:38:49;;;;;;;9.43;4.67;;;;;;;;;;5032021;28;20041;-68
2023/01/24 07:41:15;;;;;;;7.47;4.03;;;;;;;;;;5030674;28;20518;-69
2023/01/24 07:43:41;;;;;;;4.97;3.30;;;;;;;;;;5031856;28;20045;-68
2023/01/24 07:46:07;;;;;;;7.37;3.20;;;;;;;;;;5032252;28;20219;-66
2023/01/24 07:48:33;;;;;;;6.70;3.07;;;;;;;;;;5032663;28;20546;-69
2023/01/24 07:51:00;;;;;;;8.53;3.20;;;;;;;;;;5032204;28;20034;-68
2023/01/24 07:53:26;;;;;;;7.47;3.40;;;;;;;;;;5032413;28;20044;-68
2023/01/24 07:55:53;;;;;;;5.33;3.27;;;;;;;;;;5033437;28;20029;-69
2023/01/24 07:58:19;;;;;;;5.77;3.10;;;;;;;;;;5034110;28;20410;-68
2023/01/24 08:00:45;;;;;;;5.50;3.17;;;;;;;;;;5031585;28;20795;-69
2023/01/24 08:03:11;;;;;;;7.87;3.20;;;;;;;;;;5032627;28;20113;-69
2023/01/24 08:05:38;;;;;;;4.97;3.30;;;;;;;;;;5005512;28;20080;-69
2023/01/24 08:08:04;;;;;;;8.67;3.40;;;;;;;;;;5014163;28;20034;-69
2023/01/24 08:10:30;;;;;;;10.03;3.40;;;;;;;;;;5015563;28;20036;-69
2023/01/24 08:12:56;;;;;;;14.50;3.60;;;;;;;;;;5015371;28;20096;-69
2023/01/24 08:15:22;;;;;;;7.63;3.17;;;;;;;;;;5015765;28;20034;-69
2023/01/24 08:17:49;;;;;;;3.93;2.37;;;;;;;;;;5015612;28;20041;-70
2023/01/24 08:20:15;;;;;;;6.93;3.40;;;;;;;;;;5015649;28;20065;-69
2023/01/24 08:22:41;;;;;;;6.23;3.17;;;;;;;;;;5015397;28;20117;-70
2023/01/24 08:25:08;;;;;;;8.67;3.50;;;;;;;;;;5014285;28;20410;-70
2023/01/24 08:27:34;;;;;;;7.57;2.77;;;;;;;;;;5015601;28;20030;-70
2023/01/24 08:30:01;;;;;;;6.17;3.43;;;;;;;;;;4992592;28;20045;-70
2023/01/24 08:32:27;;;;;;;6.07;3.23;;;;;;;;;;5035700;28;20061;-69
2023/01/24 08:34:54;;;;;;;8.37;3.47;;;;;;;;;;5035405;28;20434;-70
2023/01/24 08:37:20;;;;;;;10.27;4.10;;;;;;;;;;5035556;28;20368;-70
2023/01/24 08:39:46;;;;;;;8.57;4.10;;;;;;;;;;5035529;28;20560;-70
2023/01/24 08:42:12;;;;;;;7.50;4.30;;;;;;;;;;5035256;28;20108;-70
2023/01/24 08:44:38;;;;;;;9.23;4.57;;;;;;;;;;5034106;28;20478;-70
2023/01/24 08:47:04;;;;;;;7.40;4.07;;;;;;;;;;5034155;28;20037;-70
2023/01/24 08:49:30;;;;;;;5.60;3.40;;;;;;;;;;5035358;28;20038;-70
2023/01/24 08:51:59;;;;;;;6.50;3.00;;;;;;;;;;5034828;28;20041;-70
2023/01/24 08:54:26;;;;;;;5.70;2.80;;;;;;;;;;5034231;28;20557;-70
2023/01/24 08:56:52;;;;;;;6.97;3.27;;;;;;;;;;5034987;28;20491;-70
2023/01/24 08:59:18;;;;;;;149.20;66.10;;;;;;;;;;5034989;28;20053;-70
2023/01/24 09:01:44;;;;;;;117.17;55.67;;;;;;;;;;5033780;28;20041;-70
2023/01/24 09:04:12;;;;;;;86.73;41.70;;;;;;;;;;5034906;28;20052;-70
2023/01/24 09:06:38;;;;;;;42.73;19.93;;;;;;;;;;5033594;28;20061;-70
2023/01/24 09:09:05;;;;;;;24.97;11.83;;;;;;;;;;5035165;28;20034;-70
2023/01/24 09:11:31;;;;;;;10.77;6.00;;;;;;;;;;5034738;28;20029;-70
2023/01/24 09:13:57;;;;;;;9.77;5.87;;;;;;;;;;5033803;28;20441;-70
2023/01/24 09:16:24;;;;;;;7.83;4.40;;;;;;;;;;5034695;28;20038;-70
2023/01/24 09:18:51;;;;;;;9.40;3.43;;;;;;;;;;5034538;28;20041;-70
2023/01/24 09:21:17;;;;;;;5.93;2.77;;;;;;;;;;5034700;28;20044;-70
2023/01/24 09:23:43;;;;;;;6.10;2.80;;;;;;;;;;5033184;28;20046;-70
2023/01/24 09:26:09;;;;;;;5.80;2.70;;;;;;;;;;5034482;28;20037;-70
2023/01/24 09:28:36;;;;;;;6.50;3.00;;;;;;;;;;5032983;28;20033;-70
2023/01/24 09:31:02;;;;;;;6.17;2.63;;;;;;;;;;5033256;28;20029;-71
2023/01/24 09:33:29;;;;;;;5.93;1.90;;;;;;;;;;5034561;28;20038;-70
2023/01/24 09:35:57;;;;;;;3.17;1.80;;;;;;;;;;5034387;28;20109;-70
2023/01/24 09:38:25;;;;;;;7.70;1.90;;;;;;;;;;5034308;28;20112;-70
2023/01/24 09:40:55;;;;;;;8.63;2.30;;;;;;;;;;5034318;28;20538;-70
2023/01/24 09:43:21;;;;;;;6.63;1.73;;;;;;;;;;5034413;28;20045;-70
2023/01/24 09:45:54;;;;;;;3.83;1.73;;;;;;;;;;5034399;28;20040;-70
2023/01/24 09:48:20;;;;;;;5.73;1.40;;;;;;;;;;5034395;28;20033;-70
2023/01/24 09:50:49;;;;;;;2.47;1.30;;;;;;;;;;5034023;28;20087;-70
2023/01/24 09:53:23;;;;;;;1.87;1.13;;;;;;;;;;5033946;28;20037;-71
2023/01/24 09:55:50;;;;;;;2.30;0.97;;;;;;;;;;5032561;28;20029;-70
2023/01/24 09:58:36;;;;;;;3.63;1.00;;;;;;;;;;5033815;28;20045;-70
2023/01/24 10:01:06;;;;;;;1.70;1.10;;;;;;;;;;5033930;28;20045;-70
2023/01/24 10:03:33;;;;;;;1.90;0.90;;;;;;;;;;5033540;28;20045;-70
2023/01/24 10:06:01;;;;;;;3.30;0.90;;;;;;;;;;5033495;28;20034;-70
2023/01/24 10:08:49;;;;;;;1.00;0.60;;;;;;;;;;5033508;28;20069;-70
2023/01/24 10:11:34;;;;;;;3.07;0.80;;;;;;;;;;5032307;28;20037;-71
2023/01/24 10:14:20;;;;;;;0.80;0.47;;;;;;;;;;5033208;28;20041;-70
2023/01/24 10:16:46;;;;;;;3.47;0.60;;;;;;;;;;5033376;28;20040;-71
2023/01/24 10:19:28;;;;;;;3.20;0.73;;;;;;;;;;5032916;28;20036;-70
2023/01/24 10:22:03;;;;;;;4.90;0.70;;;;;;;;;;5033307;28;20120;-70
2023/01/24 10:24:32;;;;;;;1.97;0.60;;;;;;;;;;5032785;28;20072;-70
2023/01/24 10:26:59;;;;;;;3.73;0.80;;;;;;;;;;5033051;28;20458;-71
2023/01/24 10:29:32;;;;;;;1.17;0.60;;;;;;;;;;5033083;28;20030;-71
2023/01/24 10:32:03;;;;;;;2.10;0.60;;;;;;;;;;5032988;28;20037;-70
2023/01/24 10:34:48;;;;;;;3.03;0.60;;;;;;;;;;5033052;28;20065;-70
2023/01/24 10:37:25;;;;;;;2.53;0.60;;;;;;;;;;5032643;28;20040;-70
2023/01/24 10:39:51;;;;;;;2.50;0.60;;;;;;;;;;5032776;28;20025;-70
2023/01/24 10:42:21;;;;;;;4.13;0.43;;;;;;;;;;5033115;28;20033;-71
2023/01/24 10:44:48;;;;;;;4.07;0.40;;;;;;;;;;5032530;28;20098;-70
2023/01/24 10:47:14;;;;;;;3.03;0.60;;;;;;;;;;5032067;28;20399;-70
2023/01/24 10:49:42;;;;;;;2.07;0.50;;;;;;;;;;5032428;28;20434;-70
2023/01/24 10:52:16;;;;;;;2.20;0.60;;;;;;;;;;5032415;28;20080;-70
2023/01/24 10:54:53;;;;;;;1.87;0.47;;;;;;;;;;5032127;28;20029;-70
2023/01/24 10:57:31;;;;;;;5.17;0.47;;;;;;;;;;5032232;28;20033;-70
2023/01/24 11:00:25;;;;;;;2.30;0.70;;;;;;;;;;5032394;28;20111;-71
2023/01/24 11:02:52;;;;;;;5.10;0.70;;;;;;;;;;5029124;28;20037;-70
2023/01/24 11:05:19;;;;;;;1.17;0.67;;;;;;;;;;5028433;28;20048;-70
2023/01/24 11:07:50;;;;;;;4.87;0.60;;;;;;;;;;5029475;28;20038;-70
2023/01/24 11:10:21;;;;;;;0.60;0.40;;;;;;;;;;5029707;28;20041;-70
2023/01/24 11:12:48;;;;;;;2.73;1.00;;;;;;;;;;5031835;28;20030;-70
2023/01/24 11:15:18;;;;;;;1.43;0.33;;;;;;;;;;5032127;28;20391;-70
2023/01/24 11:17:44;;;;;;;3.70;0.50;;;;;;;;;;5032437;28;20057;-69
2023/01/24 11:20:22;;;;;;;1.90;0.60;;;;;;;;;;5032393;28;20129;-69
2023/01/24 11:22:51;;;;;;;1.20;0.63;;;;;;;;;;5032139;28;20040;-69
2023/01/24 11:25:18;;;;;;;1.70;0.60;;;;;;;;;;5033262;28;20091;-68
2023/01/24 11:27:48;;;;;;;1.10;0.60;;;;;;;;;;5030789;28;20034;-69
2023/01/24 11:30:15;;;;;;;0.50;0.40;;;;;;;;;;5031325;28;20441;-69
2023/01/24 11:32:41;;;;;;;1.37;0.77;;;;;;;;;;5036248;28;20037;-69
2023/01/24 11:35:24;;;;;;;3.80;0.90;;;;;;;;;;5035919;28;20167;-70
2023/01/24 11:38:09;;;;;;;3.67;0.80;;;;;;;;;;5036021;28;20356;-71
2023/01/24 11:41:00;;;;;;;1.13;0.60;;;;;;;;;;5034994;28;20480;-70
2023/01/24 11:43:34;;;;;;;1.03;0.60;;;;;;;;;;5035930;28;20049;-70
2023/01/24 11:46:21;;;;;;;2.10;0.90;;;;;;;;;;5036158;28;20032;-70
2023/01/24 11:48:56;;;;;;;4.30;0.70;;;;;;;;;;5035753;28;20026;-70
2023/01/24 11:51:34;;;;;;;1.73;0.90;;;;;;;;;;5034434;28;20040;-70
2023/01/24 11:54:12;;;;;;;2.73;1.00;;;;;;;;;;5032585;28;20057;-70
2023/01/24 11:56:56;;;;;;;2.93;0.80;;;;;;;;;;5033019;28;20367;-70
2023/01/24 11:59:22;;;;;;;2.73;0.83;;;;;;;;;;5034808;28;20050;-70
2023/01/24 12:01:48;;;;;;;4.03;0.70;;;;;;;;;;5035707;28;20053;-70
2023/01/24 12:04:21;;;;;;;2.70;0.90;;;;;;;;;;5035573;28;20384;-70
2023/01/24 12:06:47;;;;;;;1.37;0.53;;;;;;;;;;5035720;28;20113;-70
2023/01/24 12:09:24;;;;;;;0.73;0.50;;;;;;;;;;5035487;28;20029;-70
2023/01/24 12:11:53;;;;;;;2.40;0.60;;;;;;;;;;5035314;28;20487;-70
2023/01/24 12:14:19;;;;;;;1.20;0.50;;;;;;;;;;5035707;28;20030;-71
2023/01/24 12:16:48;;;;;;;1.47;0.70;;;;;;;;;;5035334;28;20026;-70
2023/01/24 12:19:33;;;;;;;1.33;0.70;;;;;;;;;;5032599;28;20483;-71
2023/01/24 12:21:59;;;;;;;1.00;0.57;;;;;;;;;;5032325;28;20088;-71
2023/01/24 12:24:29;;;;;;;3.83;0.80;;;;;;;;;;5031588;28;20053;-70
2023/01/24 12:26:58;;;;;;;6.80;1.43;;;;;;;;;;5035127;28;20087;-72
2023/01/24 12:29:33;;;;;;;1.10;0.60;;;;;;;;;;5035244;28;20031;-71
2023/01/24 12:32:08;;;;;;;1.40;0.90;;;;;;;;;;5035286;28;20038;-70
2023/01/24 12:34:34;;;;;;;1.00;0.70;;;;;;;;;;5033451;28;20395;-71
2023/01/24 12:37:03;;;;;;;1.60;0.73;;;;;;;;;;5035094;28;20108;-71
2023/01/24 12:39:35;;;;;;;2.27;1.23;;;;;;;;;;5035062;28;20566;-71
2023/01/24 12:42:01;;;;;;;;;;;;;;;;;;5034566;28;20042;-71
2023/01/24 12:44:33;;;;;;;0.90;0.53;;;;;;;;;;5034632;28;19956;-71
2023/01/24 12:47:02;;;;;;;1.03;0.70;;;;;;;;;;5034548;28;20033;-71
2023/01/24 12:49:35;;;;;;;1.10;0.70;;;;;;;;;;5032882;28;20445;-71
2023/01/24 12:52:10;;;;;;;1.90;0.93;;;;;;;;;;5033183;28;20042;-72
2023/01/24 12:54:48;;;;;;;1.13;0.70;;;;;;;;;;5034217;28;20036;-71
2023/01/24 12:57:30;;;;;;;1.00;0.60;;;;;;;;;;5014385;28;20043;-72
2023/01/24 12:59:56;;;;;;;1.60;0.80;;;;;;;;;;5014635;28;20191;-71
2023/01/24 13:02:22;;;;;;;1.27;0.63;;;;;;;;;;5014501;28;20530;-71
2023/01/24 13:05:00;;;;;;;1.73;0.90;;;;;;;;;;5013740;28;20061;-71
2023/01/24 13:07:45;;;;;;;2.43;1.10;;;;;;;;;;5014119;28;20041;-71
2023/01/24 13:10:17;;;;;;;1.60;0.90;;;;;;;;;;5011734;28;20496;-71
2023/01/24 13:12:45;;;;;;;2.70;1.33;;;;;;;;;;5011677;28;20088;-71
2023/01/24 13:15:11;;;;;;;1.20;0.60;;;;;;;;;;5013075;28;20033;-71
2023/01/24 13:17:37;;;;;;;1.50;0.73;;;;;;;;;;5013947;28;20081;-70
2023/01/24 13:20:22;;;;;;;1.53;0.73;;;;;;;;;;5014269;28;20053;-71
2023/01/24 13:22:56;;;;;;;1.80;0.80;;;;;;;;;;5013915;28;20064;-71
2023/01/24 13:25:22;;;;;;;2.23;1.30;;;;;;;;;;5012857;28;20563;-71
2023/01/24 13:28:00;;;;;;;2.60;1.10;;;;;;;;;;5013755;28;20053;-70
2023/01/24 13:30:47;;;;;;;2.10;1.20;;;;;;;;;;5013743;28;20033;-71
2023/01/24 13:33:25;;;;;;;2.13;1.23;;;;;;;;;;5013703;28;20132;-71
2023/01/24 13:35:52;;;;;;;2.30;1.20;;;;;;;;;;5013589;28;20034;-71
2023/01/24 13:38:25;;;;;;;2.97;1.70;;;;;;;;;;5013239;28;20042;-71
2023/01/24 13:41:01;;;;;;;3.40;1.30;;;;;;;;;;5013894;28;20034;-71
2023/01/24 13:43:45;;;;;;;2.20;1.30;;;;;;;;;;5012483;28;20041;-71
2023/01/24 13:46:11;;;;;;;2.50;1.20;;;;;;;;;;5013378;28;20038;-71
2023/01/24 13:48:44;;;;;;;1.43;1.00;;;;;;;;;;5012302;28;20042;-71
2023/01/24 13:51:16;;;;;;;1.90;1.10;;;;;;;;;;5013592;28;20087;-71
2023/01/24 13:54:01;;;;;;;2.47;1.23;;;;;;;;;;5012596;28;20037;-71
2023/01/24 13:56:27;;;;;;;2.80;1.57;;;;;;;;;;5013954;28;20088;-71
2023/01/24 13:58:54;;;;;;;2.70;1.60;;;;;;;;;;5013281;28;20442;-71
2023/01/24 14:01:21;;;;;;;2.37;1.40;;;;;;;;;;5013196;28;20491;-71
2023/01/24 14:04:03;;;;;;;17.67;10.03;;;;;;;;;;5013003;28;20124;-71
2023/01/24 14:06:46;;;;;;;27.50;17.02;;;;;;;;;;5028570;28;20042;-71
2023/01/24 14:09:23;;;;;;;34.10;22.93;;;;;;;;;;5013218;28;20431;-72
2023/01/24 14:12:12;;;;;;;26.70;17.73;;;;;;;;;;5013183;28;20491;-71
2023/01/24 14:14:58;;;;;;;8.70;6.20;;;;;;;;;;5010524;28;20506;-71
2023/01/24 14:17:26;;;;;;;6.53;4.23;;;;;;;;;;5010525;28;20441;-71
2023/01/24 14:19:54;;;;;;;6.00;2.67;;;;;;;;;;5012197;28;20115;-71
2023/01/24 14:22:34;;;;;;;2.10;1.43;;;;;;;;;;5011550;28;20519;-70
2023/01/24 14:25:05;;;;;;;2.73;1.60;;;;;;;;;;5018615;28;20048;-70
2023/01/24 14:27:39;;;;;;;2.33;1.30;;;;;;;;;;5032110;28;20398;-70
2023/01/24 14:30:11;;;;;;;2.13;1.20;;;;;;;;;;5030226;28;20037;-71
2023/01/24 14:32:45;;;;;;;1.90;1.33;;;;;;;;;;5032877;28;20081;-71
2023/01/24 14:35:17;;;;;;;2.80;1.10;;;;;;;;;;5032587;28;20068;-70
2023/01/24 14:37:43;;;;;;;2.30;1.20;;;;;;;;;;5031401;28;20467;-70
2023/01/24 14:40:12;;;;;;;2.83;0.97;;;;;;;;;;5031451;28;20364;-70
2023/01/24 14:42:38;;;;;;;1.73;0.97;;;;;;;;;;5031134;28;20060;-71
2023/01/24 14:45:05;;;;;;;3.20;1.30;;;;;;;;;;5032073;28;20037;-71
2023/01/24 14:47:31;;;;;;;1.90;1.20;;;;;;;;;;5032594;28;20491;-70
2023/01/24 14:49:58;;;;;;;3.53;1.47;;;;;;;;;;5032455;28;20037;-71
2023/01/24 14:52:25;;;;;;;2.70;1.70;;;;;;;;;;5032504;28;20029;-71
2023/01/24 14:54:59;;;;;;;2.33;1.30;;;;;;;;;;5032403;28;20034;-71
2023/01/24 14:57:26;;;;;;;1.80;1.20;;;;;;;;;;5032470;28;20099;-70
2023/01/24 15:00:19;;;;;;;3.10;1.17;;;;;;;;;;5032287;28;20060;-70
2023/01/24 15:02:55;;;;;;;1.80;1.30;;;;;;;;;;5031851;28;20030;-70
2023/01/24 15:05:24;;;;;;;3.10;1.50;;;;;;;;;;5031926;28;20087;-71
2023/01/24 15:07:50;;;;;;;1.70;1.30;;;;;;;;;;5032159;28;20030;-71
2023/01/24 15:10:16;;;;;;;2.57;1.40;;;;;;;;;;5032363;28;20034;-70
2023/01/24 15:12:42;;;;;;;1.80;1.10;;;;;;;;;;5032309;28;20445;-70
2023/01/24 15:15:16;;;;;;;2.50;1.27;;;;;;;;;;5032500;28;20040;-70
2023/01/24 15:17:45;;;;;;;3.60;1.40;;;;;;;;;;5032361;28;20044;-71
2023/01/24 15:20:15;;;;;;;2.80;1.40;;;;;;;;;;5032304;28;20037;-71
2023/01/24 15:22:41;;;;;;;2.37;1.40;;;;;;;;;;5032305;28;20479;-71
2023/01/24 15:25:26;;;;;;;2.93;1.40;;;;;;;;;;5032309;28;20048;-71
2023/01/24 15:27:52;;;;;;;3.57;1.70;;;;;;;;;;5032248;28;20036;-71
2023/01/24 15:30:20;;;;;;;3.23;1.60;;;;;;;;;;5031969;28;20037;-71
2023/01/24 15:32:49;;;;;;;4.50;2.00;;;;;;;;;;5032308;28;20491;-71
2023/01/24 15:35:24;;;;;;;2.47;1.77;;;;;;;;;;5032427;28;20414;-71
2023/01/24 15:38:06;;;;;;;4.20;2.57;;;;;;;;;;5032525;28;20033;-71